sensor_id;sensor_type;location;lat;lon;timestamp;P1;durP1;ratioP1;P2;durP2;ratioP2
209;SDS011;90;48.810;9.120;2023-05-17T00:00:14;3.50;;;3.30;;
209;SDS011;90;48.810;9.120;2023-05-17T00:02:42;5.03;;;2.90;;
209;SDS011;90;48.810;9.120;2023-05-17T00:05:08;3.33;;;2.37;;
209;SDS011;90;48.810;9.120;2023-05-17T00:07:36;9.40;;;2.50;;
209;SDS011;90;48.810;9.120;2023-05-17T00:10:02;5.00;;;2.83;;
209;SDS011;90;48.810;9.120;2023-05-17T00:12:30;7.60;;;3.37;;
209;SDS011;90;48.810;9.120;2023-05-17T00:14:56;3.80;;;3.00;;
209;SDS011;90;48.810;9.120;2023-05-17T00:17:24;8.80;;;3.30;;
209;SDS011;90;48.810;9.120;2023-05-17T00:19:51;7.77;;;3.80;;
209;SDS011;90;48.810;9.120;2023-05-17T00:22:17;3.67;;;2.90;;
209;SDS011;90;48.810;9.120;2023-05-17T00:24:44;4.30;;;2.97;;
209;SDS011;90;48.810;9.120;2023-05-17T00:27:11;4.77;;;2.93;;
209;SDS011;90;48.810;9.120;2023-05-17T00:29:38;6.13;;;3.40;;
209;SDS011;90;48.810;9.120;2023-05-17T00:32:04;4.20;;;3.00;;
209;SDS011;90;48.810;9.120;2023-05-17T00:34:33;4.57;;;2.90;;
209;SDS011;90;48.810;9.120;2023-05-17T00:37:00;3.70;;;3.07;;
209;SDS011;90;48.810;9.120;2023-05-17T00:39:26;5.60;;;3.23;;
209;SDS011;90;48.810;9.120;2023-05-17T00:41:53;2.87;;;2.40;;
209;SDS011;90;48.810;9.120;2023-05-17T00:44:19;8.80;;;2.70;;
209;SDS011;90;48.810;9.120;2023-05-17T00:46:46;4.37;;;3.10;;
209;SDS011;90;48.810;9.120;2023-05-17T00:49:14;4.73;;;2.97;;
209;SDS011;90;48.810;9.120;2023-05-17T00:51:42;5.57;;;2.90;;
209;SDS011;90;48.810;9.120;2023-05-17T00:54:10;8.40;;;3.10;;
209;SDS011;90;48.810;9.120;2023-05-17T00:56:37;4.43;;;2.90;;
209;SDS011;90;48.810;9.120;2023-05-17T00:59:04;5.67;;;3.20;;
209;SDS011;90;48.810;9.120;2023-05-17T01:01:32;4.00;;;2.93;;
209;SDS011;90;48.810;9.120;2023-05-17T01:04:00;4.40;;;3.20;;
209;SDS011;90;48.810;9.120;2023-05-17T01:06:27;5.93;;;2.90;;
209;SDS011;90;48.810;9.120;2023-05-17T01:08:55;4.75;;;2.88;;
209;SDS011;90;48.810;9.120;2023-05-17T01:11:24;5.27;;;2.87;;
209;SDS011;90;48.810;9.120;2023-05-17T01:13:57;4.63;;;2.97;;
209;SDS011;90;48.810;9.120;2023-05-17T01:16:35;3.87;;;3.00;;
209;SDS011;90;48.810;9.120;2023-05-17T01:19:06;4.50;;;3.30;;
209;SDS011;90;48.810;9.120;2023-05-17T01:21:42;3.50;;;2.77;;
209;SDS011;90;48.810;9.120;2023-05-17T01:24:26;5.20;;;3.10;;
209;SDS011;90;48.810;9.120;2023-05-17T01:26:59;4.73;;;2.87;;
209;SDS011;90;48.810;9.120;2023-05-17T01:29:29;3.60;;;3.00;;
209;SDS011;90;48.810;9.120;2023-05-17T01:31:58;5.13;;;2.60;;
209;SDS011;90;48.810;9.120;2023-05-17T01:34:27;3.43;;;2.80;;
209;SDS011;90;48.810;9.120;2023-05-17T01:36:54;4.40;;;2.83;;
209;SDS011;90;48.810;9.120;2023-05-17T01:39:22;4.70;;;3.03;;
209;SDS011;90;48.810;9.120;2023-05-17T01:41:50;4.27;;;2.80;;
209;SDS011;90;48.810;9.120;2023-05-17T01:44:25;3.03;;;2.27;;
209;SDS011;90;48.810;9.120;2023-05-17T01:46:58;4.93;;;2.80;;
209;SDS011;90;48.810;9.120;2023-05-17T01:49:30;8.33;;;3.23;;
209;SDS011;90;48.810;9.120;2023-05-17T01:52:02;3.40;;;2.63;;
209;SDS011;90;48.810;9.120;2023-05-17T01:54:35;4.63;;;3.33;;
209;SDS011;90;48.810;9.120;2023-05-17T01:57:05;7.83;;;3.27;;
209;SDS011;90;48.810;9.120;2023-05-17T01:59:34;6.37;;;3.10;;
209;SDS011;90;48.810;9.120;2023-05-17T02:02:03;3.90;;;2.40;;
209;SDS011;90;48.810;9.120;2023-05-17T02:04:32;2.93;;;2.73;;
209;SDS011;90;48.810;9.120;2023-05-17T02:06:59;3.50;;;2.70;;
209;SDS011;90;48.810;9.120;2023-05-17T02:09:26;2.97;;;2.80;;
209;SDS011;90;48.810;9.120;2023-05-17T02:11:53;3.17;;;3.00;;
209;SDS011;90;48.810;9.120;2023-05-17T02:14:19;3.53;;;3.07;;
209;SDS011;90;48.810;9.120;2023-05-17T02:16:48;4.03;;;3.10;;
209;SDS011;90;48.810;9.120;2023-05-17T02:19:14;4.00;;;2.80;;
209;SDS011;90;48.810;9.120;2023-05-17T02:21:41;7.07;;;3.00;;
209;SDS011;90;48.810;9.120;2023-05-17T02:24:08;2.90;;;2.70;;
209;SDS011;90;48.810;9.120;2023-05-17T02:26:34;5.93;;;3.00;;
209;SDS011;90;48.810;9.120;2023-05-17T02:29:01;4.47;;;3.17;;
209;SDS011;90;48.810;9.120;2023-05-17T02:31:28;4.33;;;2.80;;
209;SDS011;90;48.810;9.120;2023-05-17T02:33:56;2.93;;;2.73;;
209;SDS011;90;48.810;9.120;2023-05-17T02:36:22;3.03;;;2.73;;
209;SDS011;90;48.810;9.120;2023-05-17T02:38:49;4.83;;;3.00;;
209;SDS011;90;48.810;9.120;2023-05-17T02:41:16;5.10;;;3.10;;
209;SDS011;90;48.810;9.120;2023-05-17T02:43:42;3.40;;;3.20;;
209;SDS011;90;48.810;9.120;2023-05-17T02:46:09;2.80;;;2.67;;
209;SDS011;90;48.810;9.120;2023-05-17T02:48:36;4.30;;;3.00;;
209;SDS011;90;48.810;9.120;2023-05-17T02:51:04;3.87;;;2.70;;
209;SDS011;90;48.810;9.120;2023-05-17T02:53:31;3.30;;;2.90;;
209;SDS011;90;48.810;9.120;2023-05-17T02:55:57;3.37;;;3.00;;
209;SDS011;90;48.810;9.120;2023-05-17T02:58:24;7.50;;;3.13;;
209;SDS011;90;48.810;9.120;2023-05-17T03:00:51;3.83;;;3.10;;
209;SDS011;90;48.810;9.120;2023-05-17T03:03:18;4.10;;;2.60;;
209;SDS011;90;48.810;9.120;2023-05-17T03:05:45;3.10;;;2.90;;
209;SDS011;90;48.810;9.120;2023-05-17T03:08:13;3.23;;;2.73;;
209;SDS011;90;48.810;9.120;2023-05-17T03:10:39;4.60;;;3.00;;
209;SDS011;90;48.810;9.120;2023-05-17T03:13:06;3.00;;;2.80;;
209;SDS011;90;48.810;9.120;2023-05-17T03:15:32;6.33;;;2.70;;
209;SDS011;90;48.810;9.120;2023-05-17T03:17:59;3.27;;;2.73;;
209;SDS011;90;48.810;9.120;2023-05-17T03:20:26;4.70;;;3.20;;
209;SDS011;90;48.810;9.120;2023-05-17T03:22:53;6.30;;;3.20;;
209;SDS011;90;48.810;9.120;2023-05-17T03:25:21;6.10;;;2.70;;
209;SDS011;90;48.810;9.120;2023-05-17T03:27:47;3.80;;;3.10;;
209;SDS011;90;48.810;9.120;2023-05-17T03:30:14;3.17;;;3.00;;
209;SDS011;90;48.810;9.120;2023-05-17T03:32:41;3.30;;;3.10;;
209;SDS011;90;48.810;9.120;2023-05-17T03:35:08;5.10;;;3.00;;
209;SDS011;90;48.810;9.120;2023-05-17T03:37:34;3.70;;;2.87;;
209;SDS011;90;48.810;9.120;2023-05-17T03:40:01;5.20;;;3.33;;
209;SDS011;90;48.810;9.120;2023-05-17T03:42:30;4.53;;;2.87;;
209;SDS011;90;48.810;9.120;2023-05-17T03:44:56;5.20;;;3.00;;
209;SDS011;90;48.810;9.120;2023-05-17T03:47:23;7.40;;;2.87;;
209;SDS011;90;48.810;9.120;2023-05-17T03:49:50;7.80;;;3.10;;
209;SDS011;90;48.810;9.120;2023-05-17T03:52:16;7.60;;;3.63;;
209;SDS011;90;48.810;9.120;2023-05-17T03:54:43;2.70;;;2.50;;
209;SDS011;90;48.810;9.120;2023-05-17T03:57:10;4.37;;;2.97;;
209;SDS011;90;48.810;9.120;2023-05-17T03:59:38;3.10;;;2.90;;
209;SDS011;90;48.810;9.120;2023-05-17T04:02:04;4.30;;;2.60;;
209;SDS011;90;48.810;9.120;2023-05-17T04:04:31;4.70;;;2.87;;
209;SDS011;90;48.810;9.120;2023-05-17T04:06:58;4.83;;;3.00;;
209;SDS011;90;48.810;9.120;2023-05-17T04:09:25;6.90;;;3.63;;
209;SDS011;90;48.810;9.120;2023-05-17T04:11:51;4.50;;;3.37;;
209;SDS011;90;48.810;9.120;2023-05-17T04:14:18;5.30;;;3.30;;
209;SDS011;90;48.810;9.120;2023-05-17T04:16:47;4.50;;;3.60;;
209;SDS011;90;48.810;9.120;2023-05-17T04:19:14;3.37;;;3.20;;
209;SDS011;90;48.810;9.120;2023-05-17T04:21:41;3.27;;;3.07;;
209;SDS011;90;48.810;9.120;2023-05-17T04:24:07;5.73;;;3.50;;
209;SDS011;90;48.810;9.120;2023-05-17T04:26:34;4.50;;;3.67;;
209;SDS011;90;48.810;9.120;2023-05-17T04:29:00;7.47;;;4.40;;
209;SDS011;90;48.810;9.120;2023-05-17T04:31:27;5.77;;;3.80;;
209;SDS011;90;48.810;9.120;2023-05-17T04:33:55;9.23;;;4.03;;
209;SDS011;90;48.810;9.120;2023-05-17T04:36:22;14.60;;;4.83;;
209;SDS011;90;48.810;9.120;2023-05-17T04:38:49;11.90;;;3.90;;
209;SDS011;90;48.810;9.120;2023-05-17T04:41:15;6.17;;;4.27;;
209;SDS011;90;48.810;9.120;2023-05-17T04:43:42;7.20;;;4.33;;
209;SDS011;90;48.810;9.120;2023-05-17T04:46:09;5.27;;;4.03;;
209;SDS011;90;48.810;9.120;2023-05-17T04:48:36;5.07;;;4.00;;
209;SDS011;90;48.810;9.120;2023-05-17T04:51:04;6.50;;;3.40;;
209;SDS011;90;48.810;9.120;2023-05-17T04:53:31;4.50;;;3.50;;
209;SDS011;90;48.810;9.120;2023-05-17T04:55:58;7.27;;;3.47;;
209;SDS011;90;48.810;9.120;2023-05-17T04:58:25;3.83;;;3.63;;
209;SDS011;90;48.810;9.120;2023-05-17T05:00:52;6.23;;;4.07;;
209;SDS011;90;48.810;9.120;2023-05-17T05:03:18;5.77;;;4.80;;
209;SDS011;90;48.810;9.120;2023-05-17T05:05:47;5.40;;;4.33;;
209;SDS011;90;48.810;9.120;2023-05-17T05:08:15;5.53;;;3.97;;
209;SDS011;90;48.810;9.120;2023-05-17T05:10:41;6.83;;;4.30;;
209;SDS011;90;48.810;9.120;2023-05-17T05:13:08;10.63;;;4.60;;
209;SDS011;90;48.810;9.120;2023-05-17T05:15:35;14.63;;;4.77;;
209;SDS011;90;48.810;9.120;2023-05-17T05:18:01;4.80;;;4.57;;
209;SDS011;90;48.810;9.120;2023-05-17T05:20:28;7.90;;;4.30;;
209;SDS011;90;48.810;9.120;2023-05-17T05:22:56;6.57;;;3.70;;
209;SDS011;90;48.810;9.120;2023-05-17T05:25:26;7.80;;;4.73;;
209;SDS011;90;48.810;9.120;2023-05-17T05:27:52;5.10;;;4.83;;
209;SDS011;90;48.810;9.120;2023-05-17T05:30:19;10.43;;;5.53;;
209;SDS011;90;48.810;9.120;2023-05-17T05:32:46;8.67;;;5.23;;
209;SDS011;90;48.810;9.120;2023-05-17T05:35:14;8.67;;;4.73;;
209;SDS011;90;48.810;9.120;2023-05-17T05:37:41;9.57;;;5.17;;
209;SDS011;90;48.810;9.120;2023-05-17T05:40:08;7.50;;;4.47;;
209;SDS011;90;48.810;9.120;2023-05-17T05:42:37;8.20;;;4.73;;
209;SDS011;90;48.810;9.120;2023-05-17T05:45:04;11.87;;;4.43;;
209;SDS011;90;48.810;9.120;2023-05-17T05:47:32;9.07;;;4.20;;
209;SDS011;90;48.810;9.120;2023-05-17T05:49:59;6.03;;;3.87;;
209;SDS011;90;48.810;9.120;2023-05-17T05:52:25;5.23;;;3.10;;
209;SDS011;90;48.810;9.120;2023-05-17T05:54:52;9.87;;;3.93;;
209;SDS011;90;48.810;9.120;2023-05-17T05:57:18;8.23;;;4.33;;
209;SDS011;90;48.810;9.120;2023-05-17T05:59:46;10.87;;;4.30;;
209;SDS011;90;48.810;9.120;2023-05-17T06:02:13;6.33;;;3.97;;
209;SDS011;90;48.810;9.120;2023-05-17T06:04:40;8.43;;;4.17;;
209;SDS011;90;48.810;9.120;2023-05-17T06:07:07;5.90;;;3.83;;
209;SDS011;90;48.810;9.120;2023-05-17T06:09:34;9.00;;;4.80;;
209;SDS011;90;48.810;9.120;2023-05-17T06:12:00;8.63;;;4.10;;
209;SDS011;90;48.810;9.120;2023-05-17T06:14:30;5.13;;;4.20;;
209;SDS011;90;48.810;9.120;2023-05-17T06:16:58;7.83;;;4.70;;
209;SDS011;90;48.810;9.120;2023-05-17T06:19:25;7.07;;;4.20;;
209;SDS011;90;48.810;9.120;2023-05-17T06:21:52;9.07;;;4.13;;
209;SDS011;90;48.810;9.120;2023-05-17T06:24:18;6.97;;;3.73;;
209;SDS011;90;48.810;9.120;2023-05-17T06:26:45;10.13;;;3.83;;
209;SDS011;90;48.810;9.120;2023-05-17T06:29:12;8.23;;;3.43;;
209;SDS011;90;48.810;9.120;2023-05-17T06:31:39;5.03;;;3.50;;
209;SDS011;90;48.810;9.120;2023-05-17T06:34:07;8.17;;;4.20;;
209;SDS011;90;48.810;9.120;2023-05-17T06:36:33;6.40;;;3.30;;
209;SDS011;90;48.810;9.120;2023-05-17T06:39:00;6.37;;;4.27;;
209;SDS011;90;48.810;9.120;2023-05-17T06:41:27;10.17;;;4.20;;
209;SDS011;90;48.810;9.120;2023-05-17T06:43:53;5.33;;;4.13;;
209;SDS011;90;48.810;9.120;2023-05-17T06:46:20;10.73;;;4.13;;
209;SDS011;90;48.810;9.120;2023-05-17T06:48:47;8.93;;;4.10;;
209;SDS011;90;48.810;9.120;2023-05-17T06:51:15;6.57;;;3.80;;
209;SDS011;90;48.810;9.120;2023-05-17T06:53:41;9.30;;;4.27;;
209;SDS011;90;48.810;9.120;2023-05-17T06:56:08;12.90;;;4.30;;
209;SDS011;90;48.810;9.120;2023-05-17T06:58:35;4.80;;;3.90;;
209;SDS011;90;48.810;9.120;2023-05-17T07:01:01;7.20;;;4.50;;
209;SDS011;90;48.810;9.120;2023-05-17T07:03:28;7.43;;;4.32;;
209;SDS011;90;48.810;9.120;2023-05-17T07:05:55;7.63;;;4.30;;
209;SDS011;90;48.810;9.120;2023-05-17T07:08:23;7.93;;;3.97;;
209;SDS011;90;48.810;9.120;2023-05-17T07:10:50;7.70;;;4.17;;
209;SDS011;90;48.810;9.120;2023-05-17T07:13:17;8.47;;;4.80;;
209;SDS011;90;48.810;9.120;2023-05-17T07:15:43;10.27;;;4.70;;
209;SDS011;90;48.810;9.120;2023-05-17T07:18:10;11.47;;;4.33;;
209;SDS011;90;48.810;9.120;2023-05-17T07:20:37;7.57;;;4.30;;
209;SDS011;90;48.810;9.120;2023-05-17T07:23:04;13.27;;;5.00;;
209;SDS011;90;48.810;9.120;2023-05-17T07:25:32;7.10;;;4.37;;
209;SDS011;90;48.810;9.120;2023-05-17T07:28:02;9.87;;;4.90;;
209;SDS011;90;48.810;9.120;2023-05-17T07:30:29;15.80;;;5.87;;
209;SDS011;90;48.810;9.120;2023-05-17T07:32:56;6.20;;;4.33;;
209;SDS011;90;48.810;9.120;2023-05-17T07:35:23;8.37;;;5.57;;
209;SDS011;90;48.810;9.120;2023-05-17T07:37:49;9.83;;;4.83;;
209;SDS011;90;48.810;9.120;2023-05-17T07:40:16;11.23;;;5.40;;
209;SDS011;90;48.810;9.120;2023-05-17T07:42:44;7.37;;;4.63;;
209;SDS011;90;48.810;9.120;2023-05-17T07:45:11;10.00;;;4.90;;
209;SDS011;90;48.810;9.120;2023-05-17T07:47:38;8.80;;;5.37;;
209;SDS011;90;48.810;9.120;2023-05-17T07:50:05;11.60;;;5.23;;
209;SDS011;90;48.810;9.120;2023-05-17T07:52:32;11.43;;;5.20;;
209;SDS011;90;48.810;9.120;2023-05-17T07:54:59;8.30;;;5.67;;
209;SDS011;90;48.810;9.120;2023-05-17T07:57:25;6.20;;;5.40;;
209;SDS011;90;48.810;9.120;2023-05-17T07:59:54;9.50;;;4.80;;
209;SDS011;90;48.810;9.120;2023-05-17T08:02:20;7.30;;;4.90;;
209;SDS011;90;48.810;9.120;2023-05-17T08:04:47;7.87;;;5.03;;
209;SDS011;90;48.810;9.120;2023-05-17T08:07:13;9.63;;;5.50;;
209;SDS011;90;48.810;9.120;2023-05-17T08:09:40;6.73;;;4.90;;
209;SDS011;90;48.810;9.120;2023-05-17T08:12:09;6.40;;;5.10;;
209;SDS011;90;48.810;9.120;2023-05-17T08:14:36;10.07;;;5.57;;
209;SDS011;90;48.810;9.120;2023-05-17T08:17:05;6.47;;;5.23;;
209;SDS011;90;48.810;9.120;2023-05-17T08:19:32;9.47;;;5.13;;
209;SDS011;90;48.810;9.120;2023-05-17T08:21:59;15.07;;;5.40;;
209;SDS011;90;48.810;9.120;2023-05-17T08:24:25;10.90;;;5.57;;
209;SDS011;90;48.810;9.120;2023-05-17T08:26:52;9.10;;;4.97;;
209;SDS011;90;48.810;9.120;2023-05-17T08:29:19;7.70;;;5.23;;
209;SDS011;90;48.810;9.120;2023-05-17T08:31:45;9.87;;;5.33;;
209;SDS011;90;48.810;9.120;2023-05-17T08:34:13;8.07;;;5.20;;
209;SDS011;90;48.810;9.120;2023-05-17T08:36:40;13.17;;;5.27;;
209;SDS011;90;48.810;9.120;2023-05-17T08:39:08;5.83;;;4.50;;
209;SDS011;90;48.810;9.120;2023-05-17T08:41:35;10.50;;;5.20;;
209;SDS011;90;48.810;9.120;2023-05-17T08:44:02;8.93;;;5.10;;
209;SDS011;90;48.810;9.120;2023-05-17T08:46:30;9.50;;;4.80;;
209;SDS011;90;48.810;9.120;2023-05-17T08:48:58;6.00;;;4.77;;
209;SDS011;90;48.810;9.120;2023-05-17T08:51:29;8.30;;;4.97;;
209;SDS011;90;48.810;9.120;2023-05-17T08:53:57;7.30;;;5.27;;
209;SDS011;90;48.810;9.120;2023-05-17T08:56:24;17.70;;;4.57;;
209;SDS011;90;48.810;9.120;2023-05-17T08:58:53;8.90;;;5.33;;
209;SDS011;90;48.810;9.120;2023-05-17T09:01:21;8.73;;;4.77;;
209;SDS011;90;48.810;9.120;2023-05-17T09:03:49;12.83;;;4.93;;
209;SDS011;90;48.810;9.120;2023-05-17T09:06:16;8.87;;;4.23;;
209;SDS011;90;48.810;9.120;2023-05-17T09:08:47;9.27;;;5.07;;
209;SDS011;90;48.810;9.120;2023-05-17T09:11:21;11.77;;;4.90;;
209;SDS011;90;48.810;9.120;2023-05-17T09:13:50;7.13;;;4.43;;
209;SDS011;90;48.810;9.120;2023-05-17T09:16:17;6.63;;;4.37;;
209;SDS011;90;48.810;9.120;2023-05-17T09:18:50;5.33;;;4.40;;
209;SDS011;90;48.810;9.120;2023-05-17T09:21:19;7.37;;;4.73;;
209;SDS011;90;48.810;9.120;2023-05-17T09:23:48;7.13;;;4.37;;
209;SDS011;90;48.810;9.120;2023-05-17T09:26:15;5.80;;;4.53;;
209;SDS011;90;48.810;9.120;2023-05-17T09:28:43;8.20;;;4.47;;
209;SDS011;90;48.810;9.120;2023-05-17T09:31:10;9.50;;;4.70;;
209;SDS011;90;48.810;9.120;2023-05-17T09:33:41;6.50;;;4.23;;
209;SDS011;90;48.810;9.120;2023-05-17T09:36:15;8.63;;;4.60;;
209;SDS011;90;48.810;9.120;2023-05-17T09:38:59;6.37;;;4.47;;
209;SDS011;90;48.810;9.120;2023-05-17T09:41:29;8.10;;;4.90;;
209;SDS011;90;48.810;9.120;2023-05-17T09:43:57;8.30;;;5.03;;
209;SDS011;90;48.810;9.120;2023-05-17T09:46:25;11.43;;;5.00;;
209;SDS011;90;48.810;9.120;2023-05-17T09:48:52;8.30;;;4.87;;
209;SDS011;90;48.810;9.120;2023-05-17T09:51:27;8.00;;;5.00;;
209;SDS011;90;48.810;9.120;2023-05-17T09:53:58;11.30;;;5.47;;
209;SDS011;90;48.810;9.120;2023-05-17T09:56:26;10.18;;;5.10;;
209;SDS011;90;48.810;9.120;2023-05-17T09:58:54;10.77;;;5.03;;
209;SDS011;90;48.810;9.120;2023-05-17T10:01:21;8.87;;;5.10;;
209;SDS011;90;48.810;9.120;2023-05-17T10:03:51;9.70;;;5.13;;
209;SDS011;90;48.810;9.120;2023-05-17T10:06:19;6.23;;;4.33;;
209;SDS011;90;48.810;9.120;2023-05-17T10:08:49;10.53;;;4.97;;
209;SDS011;90;48.810;9.120;2023-05-17T10:11:20;8.73;;;5.20;;
209;SDS011;90;48.810;9.120;2023-05-17T10:13:51;8.27;;;5.10;;
209;SDS011;90;48.810;9.120;2023-05-17T10:16:20;6.73;;;4.70;;
209;SDS011;90;48.810;9.120;2023-05-17T10:18:48;8.33;;;4.83;;
209;SDS011;90;48.810;9.120;2023-05-17T10:21:14;11.10;;;4.80;;
209;SDS011;90;48.810;9.120;2023-05-17T10:23:42;6.50;;;4.73;;
209;SDS011;90;48.810;9.120;2023-05-17T10:26:11;6.60;;;4.97;;
209;SDS011;90;48.810;9.120;2023-05-17T10:28:41;10.23;;;4.97;;
209;SDS011;90;48.810;9.120;2023-05-17T10:31:08;7.00;;;4.80;;
209;SDS011;90;48.810;9.120;2023-05-17T10:33:35;4.70;;;4.33;;
209;SDS011;90;48.810;9.120;2023-05-17T10:36:03;13.20;;;4.77;;
209;SDS011;90;48.810;9.120;2023-05-17T10:38:31;6.47;;;4.90;;
209;SDS011;90;48.810;9.120;2023-05-17T10:40:58;9.07;;;5.37;;
209;SDS011;90;48.810;9.120;2023-05-17T10:43:27;9.30;;;4.87;;
209;SDS011;90;48.810;9.120;2023-05-17T10:45:56;7.67;;;4.40;;
209;SDS011;90;48.810;9.120;2023-05-17T10:48:24;8.70;;;4.70;;
209;SDS011;90;48.810;9.120;2023-05-17T10:50:54;10.77;;;5.00;;
209;SDS011;90;48.810;9.120;2023-05-17T10:53:21;7.40;;;4.40;;
209;SDS011;90;48.810;9.120;2023-05-17T10:55:48;8.23;;;5.10;;
209;SDS011;90;48.810;9.120;2023-05-17T10:58:16;9.03;;;5.17;;
209;SDS011;90;48.810;9.120;2023-05-17T11:00:45;9.83;;;4.73;;
209;SDS011;90;48.810;9.120;2023-05-17T11:03:15;13.33;;;4.70;;
209;SDS011;90;48.810;9.120;2023-05-17T11:05:44;7.73;;;4.63;;
209;SDS011;90;48.810;9.120;2023-05-17T11:08:26;7.83;;;4.83;;
209;SDS011;90;48.810;9.120;2023-05-17T11:11:06;6.80;;;4.53;;
209;SDS011;90;48.810;9.120;2023-05-17T11:13:34;6.63;;;4.70;;
209;SDS011;90;48.810;9.120;2023-05-17T11:16:16;5.43;;;4.53;;
209;SDS011;90;48.810;9.120;2023-05-17T11:18:52;8.90;;;4.93;;
209;SDS011;90;48.810;9.120;2023-05-17T11:21:31;7.57;;;4.77;;
209;SDS011;90;48.810;9.120;2023-05-17T11:24:00;8.90;;;5.10;;
209;SDS011;90;48.810;9.120;2023-05-17T11:26:31;8.30;;;5.23;;
209;SDS011;90;48.810;9.120;2023-05-17T11:29:03;6.53;;;4.50;;
209;SDS011;90;48.810;9.120;2023-05-17T11:31:34;9.37;;;3.97;;
209;SDS011;90;48.810;9.120;2023-05-17T11:34:03;8.70;;;4.57;;
209;SDS011;90;48.810;9.120;2023-05-17T11:36:31;9.97;;;5.53;;
209;SDS011;90;48.810;9.120;2023-05-17T11:39:08;7.30;;;4.67;;
209;SDS011;90;48.810;9.120;2023-05-17T11:41:36;8.00;;;4.40;;
209;SDS011;90;48.810;9.120;2023-05-17T11:44:05;7.17;;;4.30;;
209;SDS011;90;48.810;9.120;2023-05-17T11:46:32;12.50;;;5.20;;
209;SDS011;90;48.810;9.120;2023-05-17T11:48:59;7.03;;;4.97;;
209;SDS011;90;48.810;9.120;2023-05-17T11:51:28;8.67;;;4.90;;
209;SDS011;90;48.810;9.120;2023-05-17T11:53:57;5.23;;;4.80;;
209;SDS011;90;48.810;9.120;2023-05-17T11:56:27;5.40;;;4.40;;
209;SDS011;90;48.810;9.120;2023-05-17T11:58:58;7.40;;;5.13;;
209;SDS011;90;48.810;9.120;2023-05-17T12:01:25;5.03;;;4.60;;
209;SDS011;90;48.810;9.120;2023-05-17T12:03:54;8.13;;;3.83;;
209;SDS011;90;48.810;9.120;2023-05-17T12:06:21;7.40;;;4.23;;
209;SDS011;90;48.810;9.120;2023-05-17T12:08:50;7.37;;;4.67;;
209;SDS011;90;48.810;9.120;2023-05-17T12:11:17;6.53;;;4.33;;
209;SDS011;90;48.810;9.120;2023-05-17T12:13:45;7.90;;;4.93;;
209;SDS011;90;48.810;9.120;2023-05-17T12:16:15;7.60;;;4.37;;
209;SDS011;90;48.810;9.120;2023-05-17T12:18:46;8.43;;;4.40;;
209;SDS011;90;48.810;9.120;2023-05-17T12:21:14;13.80;;;4.93;;
209;SDS011;90;48.810;9.120;2023-05-17T12:23:42;6.73;;;4.67;;
209;SDS011;90;48.810;9.120;2023-05-17T12:26:12;7.93;;;4.67;;
209;SDS011;90;48.810;9.120;2023-05-17T12:28:40;5.93;;;4.80;;
209;SDS011;90;48.810;9.120;2023-05-17T12:31:08;11.13;;;4.27;;
209;SDS011;90;48.810;9.120;2023-05-17T12:33:37;8.03;;;5.00;;
209;SDS011;90;48.810;9.120;2023-05-17T12:36:05;10.70;;;4.87;;
209;SDS011;90;48.810;9.120;2023-05-17T12:38:34;4.47;;;4.17;;
209;SDS011;90;48.810;9.120;2023-05-17T12:41:02;12.30;;;5.10;;
209;SDS011;90;48.810;9.120;2023-05-17T12:43:32;8.60;;;4.83;;
209;SDS011;90;48.810;9.120;2023-05-17T12:46:04;6.70;;;5.10;;
209;SDS011;90;48.810;9.120;2023-05-17T12:48:32;6.30;;;4.97;;
209;SDS011;90;48.810;9.120;2023-05-17T12:51:06;6.53;;;4.47;;
209;SDS011;90;48.810;9.120;2023-05-17T12:53:34;7.60;;;4.73;;
209;SDS011;90;48.810;9.120;2023-05-17T12:56:02;8.43;;;4.57;;
209;SDS011;90;48.810;9.120;2023-05-17T12:58:29;8.93;;;4.30;;
209;SDS011;90;48.810;9.120;2023-05-17T13:00:58;7.33;;;4.33;;
209;SDS011;90;48.810;9.120;2023-05-17T13:03:25;5.90;;;4.67;;
209;SDS011;90;48.810;9.120;2023-05-17T13:06:00;9.13;;;5.43;;
209;SDS011;90;48.810;9.120;2023-05-17T13:08:28;6.50;;;5.00;;
209;SDS011;90;48.810;9.120;2023-05-17T13:11:05;6.93;;;4.50;;
209;SDS011;90;48.810;9.120;2023-05-17T13:13:36;8.73;;;5.10;;
209;SDS011;90;48.810;9.120;2023-05-17T13:16:04;12.00;;;5.20;;
209;SDS011;90;48.810;9.120;2023-05-17T13:18:48;7.33;;;4.13;;
209;SDS011;90;48.810;9.120;2023-05-17T13:21:16;11.90;;;5.03;;
209;SDS011;90;48.810;9.120;2023-05-17T13:23:44;7.43;;;4.73;;
209;SDS011;90;48.810;9.120;2023-05-17T13:26:12;7.03;;;5.13;;
209;SDS011;90;48.810;9.120;2023-05-17T13:28:39;6.88;;;4.80;;
209;SDS011;90;48.810;9.120;2023-05-17T13:31:07;7.07;;;4.10;;
209;SDS011;90;48.810;9.120;2023-05-17T13:33:34;11.97;;;6.00;;
209;SDS011;90;48.810;9.120;2023-05-17T13:36:01;8.80;;;4.63;;
209;SDS011;90;48.810;9.120;2023-05-17T13:38:28;9.57;;;5.13;;
209;SDS011;90;48.810;9.120;2023-05-17T13:40:54;6.73;;;5.70;;
209;SDS011;90;48.810;9.120;2023-05-17T13:43:21;9.20;;;6.07;;
209;SDS011;90;48.810;9.120;2023-05-17T13:45:48;8.40;;;5.53;;
209;SDS011;90;48.810;9.120;2023-05-17T13:48:19;8.33;;;5.60;;
209;SDS011;90;48.810;9.120;2023-05-17T13:50:46;13.23;;;4.80;;
209;SDS011;90;48.810;9.120;2023-05-17T13:53:13;7.63;;;4.53;;
209;SDS011;90;48.810;9.120;2023-05-17T13:55:39;6.00;;;4.50;;
209;SDS011;90;48.810;9.120;2023-05-17T13:58:06;7.80;;;4.50;;
209;SDS011;90;48.810;9.120;2023-05-17T14:00:33;11.00;;;4.73;;
209;SDS011;90;48.810;9.120;2023-05-17T14:02:59;8.53;;;4.63;;
209;SDS011;90;48.810;9.120;2023-05-17T14:05:28;5.97;;;4.80;;
209;SDS011;90;48.810;9.120;2023-05-17T14:07:57;6.10;;;5.00;;
209;SDS011;90;48.810;9.120;2023-05-17T14:10:24;9.10;;;5.53;;
209;SDS011;90;48.810;9.120;2023-05-17T14:12:50;6.47;;;5.30;;
209;SDS011;90;48.810;9.120;2023-05-17T14:15:17;6.67;;;5.00;;
209;SDS011;90;48.810;9.120;2023-05-17T14:17:44;6.97;;;5.17;;
209;SDS011;90;48.810;9.120;2023-05-17T14:20:11;6.17;;;4.43;;
209;SDS011;90;48.810;9.120;2023-05-17T14:22:39;9.77;;;5.27;;
209;SDS011;90;48.810;9.120;2023-05-17T14:25:07;6.53;;;4.60;;
209;SDS011;90;48.810;9.120;2023-05-17T14:27:35;11.07;;;4.90;;
209;SDS011;90;48.810;9.120;2023-05-17T14:30:02;6.57;;;4.57;;
209;SDS011;90;48.810;9.120;2023-05-17T14:32:29;8.43;;;4.70;;
209;SDS011;90;48.810;9.120;2023-05-17T14:34:55;7.00;;;4.70;;
209;SDS011;90;48.810;9.120;2023-05-17T14:37:22;7.20;;;4.73;;
209;SDS011;90;48.810;9.120;2023-05-17T14:39:50;10.00;;;5.50;;
209;SDS011;90;48.810;9.120;2023-05-17T14:42:16;7.05;;;4.88;;
209;SDS011;90;48.810;9.120;2023-05-17T14:44:43;6.50;;;4.67;;
209;SDS011;90;48.810;9.120;2023-05-17T14:47:10;6.30;;;5.30;;
209;SDS011;90;48.810;9.120;2023-05-17T14:49:37;7.60;;;4.60;;
209;SDS011;90;48.810;9.120;2023-05-17T14:52:03;8.07;;;4.93;;
209;SDS011;90;48.810;9.120;2023-05-17T14:54:30;7.50;;;5.33;;
209;SDS011;90;48.810;9.120;2023-05-17T14:56:58;9.00;;;5.00;;
209;SDS011;90;48.810;9.120;2023-05-17T14:59:25;11.77;;;4.70;;
209;SDS011;90;48.810;9.120;2023-05-17T15:01:52;6.20;;;4.57;;
209;SDS011;90;48.810;9.120;2023-05-17T15:04:18;7.60;;;4.90;;
209;SDS011;90;48.810;9.120;2023-05-17T15:06:45;6.03;;;4.70;;
209;SDS011;90;48.810;9.120;2023-05-17T15:09:12;10.90;;;5.40;;
209;SDS011;90;48.810;9.120;2023-05-17T15:11:41;7.63;;;5.37;;
209;SDS011;90;48.810;9.120;2023-05-17T15:14:09;6.10;;;4.60;;
209;SDS011;90;48.810;9.120;2023-05-17T15:16:37;8.50;;;5.23;;
209;SDS011;90;48.810;9.120;2023-05-17T15:19:04;7.53;;;4.70;;
209;SDS011;90;48.810;9.120;2023-05-17T15:21:31;7.80;;;5.60;;
209;SDS011;90;48.810;9.120;2023-05-17T15:23:58;6.13;;;4.57;;
209;SDS011;90;48.810;9.120;2023-05-17T15:26:24;7.37;;;4.60;;
209;SDS011;90;48.810;9.120;2023-05-17T15:28:51;7.90;;;5.23;;
209;SDS011;90;48.810;9.120;2023-05-17T15:31:19;8.13;;;5.10;;
209;SDS011;90;48.810;9.120;2023-05-17T15:33:48;5.20;;;4.30;;
209;SDS011;90;48.810;9.120;2023-05-17T15:36:15;10.10;;;5.70;;
209;SDS011;90;48.810;9.120;2023-05-17T15:38:41;7.13;;;4.40;;
209;SDS011;90;48.810;9.120;2023-05-17T15:41:09;9.50;;;4.53;;
209;SDS011;90;48.810;9.120;2023-05-17T15:43:38;9.33;;;5.17;;
209;SDS011;90;48.810;9.120;2023-05-17T15:46:04;8.10;;;4.60;;
209;SDS011;90;48.810;9.120;2023-05-17T15:48:32;6.00;;;4.30;;
209;SDS011;90;48.810;9.120;2023-05-17T15:51:00;5.33;;;4.80;;
209;SDS011;90;48.810;9.120;2023-05-17T15:53:27;9.77;;;5.10;;
209;SDS011;90;48.810;9.120;2023-05-17T15:55:54;8.80;;;4.80;;
209;SDS011;90;48.810;9.120;2023-05-17T15:58:22;8.30;;;5.20;;
209;SDS011;90;48.810;9.120;2023-05-17T16:00:49;8.53;;;5.77;;
209;SDS011;90;48.810;9.120;2023-05-17T16:03:16;10.63;;;5.77;;